Time;durP1;ratioP1;P1;durP2;ratioP2;P2;SDS_P1;SDS_P2;PMS_P1;PMS_P2;Temp;Humidity;BMP_temperature;BMP_pressure;BME280_temperature;BME280_humidity;BME280_pressure;Samples;Min_cycle;Max_cycle;Signal;HPM_P1;HPM_P2
2023/01/21 00:02:14;;;;;;;;;;;2.40;1.00;;;;;;5035313;28;19927;-74
2023/01/21 00:04:49;;;;;;;;;;;2.40;1.00;;;;;;5034823;28;20320;-74
2023/01/21 00:07:20;;;;;;;;;;;2.40;1.00;;;;;;5022101;28;19919;-74
2023/01/21 00:09:45;;;;;;;;;;;2.40;1.00;;;;;;5032684;28;19914;-74
2023/01/21 00:12:11;;;;;;;;;;;2.40;1.00;;;;;;5033828;28;19957;-74
2023/01/21 00:14:36;;;;;;;;;;;2.40;1.00;;;;;;5016606;28;20003;-74
2023/01/21 00:17:02;;;;;;;;;;;2.40;1.00;;;;;;5034871;28;19917;-74
2023/01/21 00:19:28;;;;;;;;;;;2.40;1.00;;;;;;5025758;28;19937;-75
2023/01/21 00:21:54;;;;;;;;;;;2.50;1.00;;;;;;5024838;28;19928;-74
2023/01/21 00:30:49;;;;;;;;;;;2.40;1.00;;;;;;5030705;28;19920;-84
2023/01/21 00:33:32;;;;;;;;;;;2.40;1.00;;;;;;5035156;28;19921;-84
2023/01/21 00:39:00;;;;;;;;;;;2.40;1.00;;;;;;5016042;28;19916;-74
2023/01/21 00:41:49;;;;;;;;;;;2.40;1.00;;;;;;5035216;28;19913;-85
2023/01/21 00:44:20;;;;;;;;;;;2.40;1.00;;;;;;5035024;28;20004;-85
2023/01/21 00:49:48;;;;;;;;;;;2.40;1.00;;;;;;5033922;28;19920;-85
2023/01/21 00:52:31;;;;;;;;;;;2.40;1.00;;;;;;5035269;28;19913;-85
2023/01/21 01:04:06;;;;;;;;;;;2.30;1.00;;;;;;5034295;28;19920;-84
2023/01/21 01:06:50;;;;;;;;;;;2.30;1.00;;;;;;5034815;28;19913;-84
2023/01/21 01:09:19;;;;;;;;;;;2.30;1.00;;;;;;5034438;28;19956;-78
2023/01/21 01:11:45;;;;;;;;;;;2.40;1.00;;;;;;5033990;28;20003;-74
2023/01/21 01:14:14;;;;;;;;;;;2.40;1.00;;;;;;5022744;28;20328;-74
2023/01/21 01:16:39;;;;;;;;;;;2.40;1.00;;;;;;5013624;28;20015;-74
2023/01/21 01:19:05;;;;;;;;;;;2.40;1.00;;;;;;5034038;28;19952;-74
2023/01/21 01:21:30;;;;;;;;;;;2.40;1.00;;;;;;5033852;28;19917;-74
2023/01/21 01:24:13;;;;;;;;;;;2.40;1.00;;;;;;5030647;28;19932;-74
2023/01/21 01:26:50;;;;;;;;;;;2.40;1.00;;;;;;5032532;28;19915;-74
2023/01/21 01:29:19;;;;;;;;;;;2.40;1.00;;;;;;5016230;28;19949;-74
2023/01/21 01:31:45;;;;;;;;;;;2.30;1.00;;;;;;5026428;28;19917;-74
2023/01/21 01:34:11;;;;;;;;;;;2.30;1.00;;;;;;5034003;28;19910;-74
2023/01/21 01:36:36;;;;;;;;;;;2.30;1.00;;;;;;5032598;28;19917;-74
2023/01/21 01:39:02;;;;;;;;;;;2.20;1.00;;;;;;5033628;28;20012;-74
2023/01/21 01:41:30;;;;;;;;;;;2.10;1.00;;;;;;5034050;28;19909;-74
2023/01/21 01:44:07;;;;;;;;;;;2.00;1.00;;;;;;5023756;28;20404;-73
2023/01/21 01:46:34;;;;;;;;;;;2.00;1.00;;;;;;5016049;28;20339;-74
2023/01/21 01:49:05;;;;;;;;;;;1.90;1.00;;;;;;5033579;28;19917;-74
2023/01/21 01:51:38;;;;;;;;;;;1.80;1.00;;;;;;5020040;28;20367;-74
2023/01/21 01:54:08;;;;;;;;;;;1.70;1.00;;;;;;5032505;28;19921;-74
2023/01/21 01:56:34;;;;;;;;;;;1.70;1.00;;;;;;5029779;28;19909;-74
2023/01/21 01:58:59;;;;;;;;;;;1.60;1.00;;;;;;5024316;28;20384;-74
2023/01/21 02:01:25;;;;;;;;;;;1.50;1.00;;;;;;5035172;28;19920;-74
2023/01/21 02:03:58;;;;;;;;;;;1.40;1.00;;;;;;5039854;28;20004;-74
2023/01/21 02:06:24;;;;;;;;;;;1.30;1.00;;;;;;5032817;28;19928;-73
2023/01/21 02:08:50;;;;;;;;;;;1.20;1.00;;;;;;5015784;28;19920;-74
2023/01/21 02:11:43;;;;;;;;;;;1.10;1.00;;;;;;5033778;28;19921;-85
2023/01/21 02:17:25;;;;;;;;;;;1.00;1.00;;;;;;5025433;28;19924;-85
2023/01/21 02:20:11;;;;;;;;;;;0.80;1.00;;;;;;5022094;28;19913;-86
2023/01/21 02:25:48;;;;;;;;;;;0.70;1.00;;;;;;4933801;29;20078;-74
2023/01/21 02:28:27;;;;;;;;;;;0.50;1.00;;;;;;4916625;29;20318;-73
2023/01/21 02:31:01;;;;;;;;;;;0.50;1.00;;;;;;4924057;29;19915;-74
2023/01/21 02:33:39;;;;;;;;;;;0.40;1.00;;;;;;4932075;29;20294;-74
2023/01/21 02:36:09;;;;;;;;;;;0.30;1.00;;;;;;4933801;29;20373;-74
2023/01/21 02:38:55;;;;;;;;;;;0.20;1.00;;;;;;4933682;29;20466;-74
2023/01/21 02:44:39;;;;;;;;;;;0.10;1.00;;;;;;4938160;29;19918;-85
2023/01/21 02:47:37;;;;;;;;;;;0.00;1.00;;;;;;4922277;29;20391;-86
2023/01/21 02:50:20;;;;;;;;;;;0.00;1.00;;;;;;4926778;29;19946;-85
2023/01/21 02:56:13;;;;;;;;;;;-0.20;1.00;;;;;;4928974;29;19930;-86
2023/01/21 02:58:46;;;;;;;;;;;-0.30;1.00;;;;;;4954077;28;19915;-85
2023/01/21 03:01:22;;;;;;;;;;;-0.30;1.00;;;;;;5037283;28;19957;-85
2023/01/21 03:04:19;;;;;;;;;;;-0.40;1.00;;;;;;5036996;28;19916;-85
2023/01/21 03:07:19;;;;;;;;;;;-0.40;1.00;;;;;;5036903;28;19956;-86
2023/01/21 03:10:13;;;;;;;;;;;-0.50;1.00;;;;;;5036766;28;20008;-85
2023/01/21 03:12:42;;;;;;;;;;;-0.60;1.00;;;;;;5030186;28;19913;-75
2023/01/21 03:17:56;;;;;;;;;;;-0.70;1.00;;;;;;5036307;28;19916;-74
2023/01/21 03:20:29;;;;;;;;;;;-0.70;1.00;;;;;;5018255;28;19920;-74
2023/01/21 03:23:06;;;;;;;;;;;-0.80;1.00;;;;;;5019181;28;19923;-74
2023/01/21 03:25:32;;;;;;;;;;;-0.80;1.00;;;;;;5028877;28;19913;-83
2023/01/21 03:27:59;;;;;;;;;;;-0.80;1.00;;;;;;5015666;28;20344;-73
2023/01/21 03:30:25;;;;;;;;;;;-0.80;1.00;;;;;;5035815;28;19913;-74
2023/01/21 03:32:57;;;;;;;;;;;-0.80;1.00;;;;;;5035729;28;19909;-74
2023/01/21 03:35:38;;;;;;;;;;;-0.90;1.10;;;;;;5033444;28;19916;-73
2023/01/21 03:38:23;;;;;;;;;;;-0.90;1.00;;;;;;5035649;28;20257;-74
2023/01/21 03:40:53;;;;;;;;;;;-1.00;1.00;;;;;;5018000;28;20269;-74
2023/01/21 03:43:20;;;;;;;;;;;-1.00;1.70;;;;;;5034548;28;19944;-74
2023/01/21 03:45:58;;;;;;;;;;;-1.00;2.20;;;;;;5035506;28;19913;-74
2023/01/21 03:48:30;;;;;;;;;;;-1.00;2.30;;;;;;5029399;28;20370;-74
2023/01/21 03:50:58;;;;;;;;;;;-1.00;1.10;;;;;;5024700;28;19984;-74
2023/01/21 03:53:26;;;;;;;;;;;-1.10;1.30;;;;;;5035329;28;19926;-74
2023/01/21 03:55:52;;;;;;;;;;;-1.10;1.50;;;;;;5035503;28;19909;-83
2023/01/21 03:58:17;;;;;;;;;;;-1.10;1.40;;;;;;5034135;28;19920;-73
2023/01/21 04:00:45;;;;;;;;;;;-1.10;2.10;;;;;;5034236;28;19963;-74
2023/01/21 04:03:11;;;;;;;;;;;-1.10;3.00;;;;;;5016748;28;19954;-74
2023/01/21 04:05:36;;;;;;;;;;;-1.20;2.40;;;;;;5025749;28;19917;-74
2023/01/21 04:08:02;;;;;;;;;;;-1.20;2.30;;;;;;5012412;28;20065;-74
2023/01/21 04:10:27;;;;;;;;;;;-1.20;2.10;;;;;;5029810;28;20307;-73
2023/01/21 04:12:53;;;;;;;;;;;-1.20;2.90;;;;;;5033919;28;19955;-74
2023/01/21 04:15:19;;;;;;;;;;;-1.20;1.00;;;;;;5031940;28;19975;-73
2023/01/21 04:17:44;;;;;;;;;;;-1.20;2.40;;;;;;5038411;28;20325;-74
2023/01/21 04:20:10;;;;;;;;;;;-1.20;2.00;;;;;;5034738;28;20261;-74
2023/01/21 04:22:36;;;;;;;;;;;-1.30;2.10;;;;;;5034196;28;19936;-73
2023/01/21 04:25:04;;;;;;;;;;;-1.30;1.00;;;;;;5013014;28;19920;-74
2023/01/21 04:27:43;;;;;;;;;;;-1.30;2.10;;;;;;5028398;28;20025;-86
2023/01/21 04:33:20;;;;;;;;;;;-1.40;1.80;;;;;;5035145;28;19944;-86
2023/01/21 04:36:07;;;;;;;;;;;-1.40;1.00;;;;;;5026419;28;19909;-86
2023/01/21 04:38:50;;;;;;;;;;;-1.50;1.40;;;;;;5035429;28;19956;-86
2023/01/21 04:41:15;;;;;;;;;;;-1.50;4.40;;;;;;5015448;28;19964;-85
2023/01/21 04:46:43;;;;;;;;;;;-1.50;2.60;;;;;;5034911;28;19915;-86
2023/01/21 04:49:14;;;;;;;;;;;-1.60;1.80;;;;;;5035079;28;19917;-86
2023/01/21 04:52:14;;;;;;;;;;;-1.60;3.00;;;;;;5034924;28;19995;-86
2023/01/21 04:54:39;;;;;;;;;;;-1.70;3.30;;;;;;5035008;28;20003;-86
2023/01/21 04:57:14;;;;;;;;;;;-1.70;2.00;;;;;;5034407;28;19949;-85
2023/01/21 05:02:50;;;;;;;;;;;-1.70;4.50;;;;;;5024412;28;19932;-86
2023/01/21 05:05:50;;;;;;;;;;;-1.80;4.50;;;;;;5034275;28;19909;-86
2023/01/21 05:11:20;;;;;;;;;;;-1.80;4.70;;;;;;5034131;28;19936;-86
2023/01/21 05:13:50;;;;;;;;;;;-1.80;5.30;;;;;;5034470;28;19992;-74
2023/01/21 05:16:15;;;;;;;;;;;-1.90;4.80;;;;;;5028008;28;19909;-74
2023/01/21 05:18:41;;;;;;;;;;;-1.90;5.10;;;;;;5033994;28;19913;-74
2023/01/21 05:21:07;;;;;;;;;;;-1.90;6.10;;;;;;5033106;28;19917;-74
2023/01/21 05:23:32;;;;;;;;;;;-1.90;7.70;;;;;;5034026;28;19975;-73
2023/01/21 05:26:02;;;;;;;;;;;-1.90;7.40;;;;;;5033419;28;20201;-74
2023/01/21 05:28:27;;;;;;;;;;;-2.00;8.20;;;;;;5033030;28;19921;-74
2023/01/21 05:30:53;;;;;;;;;;;-2.00;10.20;;;;;;5028510;28;20422;-74
2023/01/21 05:33:24;;;;;;;;;;;-2.00;10.30;;;;;;5029842;28;19913;-74
2023/01/21 05:36:19;;;;;;;;;;;-2.00;11.70;;;;;;5033751;28;20264;-91
2023/01/21 05:38:50;;;;;;;;;;;-2.00;11.80;;;;;;5014937;28;19920;-75
2023/01/21 05:41:20;;;;;;;;;;;-2.00;13.20;;;;;;5033834;28;19942;-75
2023/01/21 05:43:45;;;;;;;;;;;-2.00;13.40;;;;;;5045896;28;19909;-76
2023/01/21 05:49:26;;;;;;;;;;;-2.00;13.40;;;;;;5020827;28;19924;-77
2023/01/21 05:51:56;;;;;;;;;;;-2.00;15.80;;;;;;5010991;28;19917;-76
2023/01/21 05:54:32;;;;;;;;;;;-2.00;14.40;;;;;;5030408;28;20360;-77
2023/01/21 05:57:08;;;;;;;;;;;-2.00;17.00;;;;;;5026307;28;19959;-79
2023/01/21 05:59:50;;;;;;;;;;;-1.90;19.40;;;;;;5009614;28;19913;-82
2023/01/21 06:02:44;;;;;;;;;;;-1.90;19.70;;;;;;5032666;28;19921;-81
2023/01/21 06:05:09;;;;;;;;;;;-1.90;21.10;;;;;;5019097;28;19920;-82
2023/01/21 06:07:38;;;;;;;;;;;-1.90;24.40;;;;;;5013746;28;19917;-82
2023/01/21 06:10:03;;;;;;;;;;;-1.80;24.60;;;;;;5030234;28;19913;-82
2023/01/21 06:12:50;;;;;;;;;;;-1.80;25.20;;;;;;5018323;28;20334;-77
2023/01/21 06:15:20;;;;;;;;;;;-1.80;24.90;;;;;;5017276;28;19910;-76
2023/01/21 06:17:45;;;;;;;;;;;-1.90;24.40;;;;;;5036964;28;19920;-76
2023/01/21 06:20:11;;;;;;;;;;;-1.80;25.70;;;;;;5019348;28;19917;-76
2023/01/21 06:23:08;;;;;;;;;;;-1.90;25.20;;;;;;5037297;28;19917;-77
2023/01/21 06:25:39;;;;;;;;;;;-1.90;24.80;;;;;;5029312;28;19909;-77
2023/01/21 06:28:20;;;;;;;;;;;-1.80;23.90;;;;;;5011815;28;19944;-82
2023/01/21 06:30:50;;;;;;;;;;;-1.80;23.60;;;;;;5018628;28;19914;-81
2023/01/21 06:33:15;;;;;;;;;;;-1.80;24.00;;;;;;5008289;28;19909;-83
2023/01/21 06:35:44;;;;;;;;;;;-1.00;60.10;;;;;;5015713;28;19936;-84
2023/01/21 06:38:20;;;;;;;;;;;0.30;77.50;;;;;;5019603;28;20009;-84
2023/01/21 06:40:50;;;;;;;;;;;0.90;61.90;;;;;;5017811;28;19936;-83
2023/01/21 06:43:37;;;;;;;;;;;1.80;36.00;;;;;;5026786;28;19909;-84
2023/01/21 06:46:03;;;;;;;;;;;2.10;1.00;;;;;;5018262;28;19957;-76
2023/01/21 06:48:32;;;;;;;;;;;1.80;1.00;;;;;;5030886;28;20018;-75
2023/01/21 06:50:59;;;;;;;;;;;1.50;1.00;;;;;;5005622;28;20325;-75
2023/01/21 06:53:26;;;;;;;;;;;1.20;1.00;;;;;;5021552;28;20003;-74
2023/01/21 06:55:56;;;;;;;;;;;0.90;1.00;;;;;;5033839;28;19909;-74
2023/01/21 06:58:38;;;;;;;;;;;0.60;1.00;;;;;;5035581;28;19913;-87
2023/01/21 07:01:08;;;;;;;;;;;0.40;1.00;;;;;;5009723;28;20011;-87
2023/01/21 07:03:50;;;;;;;;;;;0.20;1.00;;;;;;5016698;28;19925;-87
2023/01/21 07:09:32;;;;;;;;;;;-0.20;1.00;;;;;;5033561;28;19924;-88
2023/01/21 07:12:20;;;;;;;;;;;-0.40;1.00;;;;;;5024115;28;20347;-86
2023/01/21 07:14:50;;;;;;;;;;;-0.60;1.00;;;;;;5024960;28;19959;-75
2023/01/21 07:17:15;;;;;;;;;;;-0.70;1.00;;;;;;5033529;28;19913;-75
2023/01/21 07:19:41;;;;;;;;;;;-0.80;1.00;;;;;;5035203;28;19920;-75
2023/01/21 07:22:08;;;;;;;;;;;-0.80;1.00;;;;;;5026423;28;19913;-75
2023/01/21 07:24:33;;;;;;;;;;;-0.90;1.00;;;;;;5032440;28;19913;-74
2023/01/21 07:26:59;;;;;;;;;;;-1.00;1.00;;;;;;5036168;28;19915;-74
2023/01/21 07:29:32;;;;;;;;;;;-1.10;1.00;;;;;;5036552;28;20334;-87
2023/01/21 07:32:20;;;;;;;;;;;-1.20;1.00;;;;;;5008437;28;19977;-87
2023/01/21 07:34:50;;;;;;;;;;;-1.20;1.00;;;;;;5023839;28;19997;-87
2023/01/21 07:40:50;;;;;;;;;;;-1.20;1.00;;;;;;5029116;28;20411;-87
2023/01/21 07:43:20;;;;;;;;;;;-1.30;1.00;;;;;;5026026;28;20007;-73
2023/01/21 07:45:50;;;;;;;;;;;-1.30;1.00;;;;;;5035573;28;20364;-73
2023/01/21 07:48:16;;;;;;;;;;;-1.20;1.00;;;;;;5035667;28;19913;-74
2023/01/21 07:50:41;;;;;;;;;;;-1.20;1.00;;;;;;5033382;28;19928;-74
2023/01/21 07:53:08;;;;;;;;;;;-1.20;1.00;;;;;;5033393;28;20368;-73
2023/01/21 07:55:38;;;;;;;;;;;-1.10;1.00;;;;;;5035638;28;20371;-74
2023/01/21 07:58:03;;;;;;;;;;;-1.10;1.00;;;;;;5035475;28;20510;-74
2023/01/21 08:03:38;;;;;;;;;;;-0.90;1.00;;;;;;5036121;28;19935;-87
2023/01/21 08:06:08;;;;;;;;;;;-0.90;1.00;;;;;;5036193;28;19909;-82
2023/01/21 08:08:44;;;;;;;;;;;-0.90;1.00;;;;;;5036293;28;19917;-87
2023/01/21 08:11:09;;;;;;;;;;;-0.80;1.00;;;;;;5036392;28;19909;-87
2023/01/21 08:13:35;;;;;;;;;;;-0.70;1.00;;;;;;5035775;28;19932;-74
2023/01/21 08:16:03;;;;;;;;;;;-0.80;1.00;;;;;;5029222;28;19999;-75
2023/01/21 08:18:28;;;;;;;;;;;-0.70;1.00;;;;;;5017799;28;20322;-74
2023/01/21 08:20:54;;;;;;;;;;;-0.70;1.00;;;;;;5017597;28;19978;-75
2023/01/21 08:23:26;;;;;;;;;;;-0.70;1.00;;;;;;5034952;28;19914;-75
2023/01/21 08:25:52;;;;;;;;;;;-0.60;1.00;;;;;;5035410;28;20019;-75
2023/01/21 08:28:20;;;;;;;;;;;-0.70;1.00;;;;;;5028051;28;19913;-74
2023/01/21 08:30:50;;;;;;;;;;;-0.60;1.00;;;;;;5020546;28;19913;-74
2023/01/21 08:33:20;;;;;;;;;;;-0.50;1.00;;;;;;5034804;28;19916;-74
2023/01/21 08:35:45;;;;;;;;;;;-0.50;1.00;;;;;;5034625;28;19909;-74
2023/01/21 08:38:11;;;;;;;;;;;-0.40;1.00;;;;;;5034712;28;19909;-75
2023/01/21 08:40:37;;;;;;;;;;;-0.40;1.00;;;;;;5034600;28;19909;-74
2023/01/21 08:43:03;;;;;;;;;;;-0.30;1.00;;;;;;5034610;28;20259;-74
2023/01/21 08:45:50;;;;;;;;;;;-0.30;1.00;;;;;;5029564;28;19914;-87
2023/01/21 08:48:38;;;;;;;;;;;-0.20;1.00;;;;;;5035400;28;19913;-86
2023/01/21 08:51:08;;;;;;;;;;;-0.10;1.00;;;;;;5035718;28;19909;-86
2023/01/21 08:53:38;;;;;;;;;;;0.00;1.00;;;;;;5035435;28;19999;-87
2023/01/21 08:56:08;;;;;;;;;;;0.00;1.00;;;;;;5035254;28;19956;-87
2023/01/21 08:58:44;;;;;;;;;;;0.10;1.00;;;;;;5014708;28;19940;-86
2023/01/21 09:01:10;;;;;;;;;;;0.10;1.00;;;;;;5025974;28;19945;-74
2023/01/21 09:03:36;;;;;;;;;;;0.20;1.00;;;;;;5034070;28;19909;-74
2023/01/21 09:06:02;;;;;;;;;;;0.20;1.00;;;;;;5034563;28;19959;-74
2023/01/21 09:08:32;;;;;;;;;;;0.30;1.00;;;;;;5016654;28;19917;-74
2023/01/21 09:11:15;;;;;;;;;;;0.40;1.00;;;;;;5026292;28;19919;-86
2023/01/21 09:14:03;;;;;;;;;;;0.40;1.00;;;;;;5022910;28;19992;-85
2023/01/21 09:16:30;;;;;;;;;;;0.40;1.00;;;;;;5016830;28;20376;-75
2023/01/21 09:18:59;;;;;;;;;;;0.50;1.00;;;;;;5034204;28;19909;-74
2023/01/21 09:21:26;;;;;;;;;;;0.50;1.00;;;;;;5033719;28;19921;-76
2023/01/21 09:23:56;;;;;;;;;;;0.60;1.00;;;;;;5034071;28;20022;-74
2023/01/21 09:26:26;;;;;;;;;;;0.60;1.00;;;;;;5031540;28;19913;-75
2023/01/21 09:28:57;;;;;;;;;;;0.60;1.00;;;;;;5034030;28;19920;-74
2023/01/21 09:34:26;;;;;;;;;;;0.70;1.00;;;;;;5034660;28;19916;-85
2023/01/21 09:37:26;;;;;;;;;;;1.10;1.00;;;;;;5034740;28;19909;-85
2023/01/21 09:40:02;;;;;;;;;;;1.40;1.00;;;;;;5026128;28;20000;-85
2023/01/21 09:45:30;;;;;;;;;;;2.10;1.00;;;;;;5033415;28;19980;-74
2023/01/21 09:47:57;;;;;;;;;;;2.10;1.00;;;;;;5033259;28;19917;-74
2023/01/21 09:50:32;;;;;;;;;;;2.00;1.00;;;;;;5033908;28;19913;-74
2023/01/21 09:53:09;;;;;;;;;;;1.90;1.00;;;;;;5033774;28;20286;-74
2023/01/21 09:55:40;;;;;;;;;;;1.80;1.00;;;;;;5031838;28;19910;-74
2023/01/21 09:58:12;;;;;;;;;;;1.80;1.00;;;;;;5033295;28;19916;-74
2023/01/21 10:12:50;;;;;;;;;;;1.60;1.00;;;;;;5034145;28;19955;-85
2023/01/21 10:15:29;;;;;;;;;;;1.60;1.00;;;;;;5034506;28;19909;-74
2023/01/21 10:18:05;;;;;;;;;;;1.60;1.00;;;;;;5033336;28;19909;-73
2023/01/21 10:20:42;;;;;;;;;;;1.60;1.00;;;;;;5033358;28;19918;-74
2023/01/21 10:23:21;;;;;;;;;;;1.80;1.00;;;;;;5031109;28;19917;-74
2023/01/21 10:25:48;;;;;;;;;;;1.90;1.00;;;;;;5031919;28;19909;-74
2023/01/21 10:28:17;;;;;;;;;;;1.90;1.00;;;;;;5014486;28;19921;-73
2023/01/21 10:30:44;;;;;;;;;;;1.90;1.00;;;;;;5024125;28;20439;-73
2023/01/21 10:33:15;;;;;;;;;;;2.00;1.00;;;;;;5033100;28;20280;-73
2023/01/21 10:35:47;;;;;;;;;;;2.00;1.00;;;;;;5019848;28;19929;-74
2023/01/21 10:38:25;;;;;;;;;;;2.00;1.00;;;;;;5025188;28;19913;-73
2023/01/21 10:41:22;;;;;;;;;;;2.00;1.00;;;;;;5019502;28;20488;-73
2023/01/21 10:44:16;;;;;;;;;;;2.20;1.00;;;;;;4950720;29;20302;-74
2023/01/21 10:46:56;;;;;;;;;;;2.20;1.00;;;;;;4949882;28;20425;-73
2023/01/21 10:49:29;;;;;;;;;;;2.20;1.00;;;;;;4952777;29;20357;-73
2023/01/21 10:52:13;;;;;;;;;;;2.30;1.00;;;;;;4951806;29;19966;-74
2023/01/21 10:54:46;;;;;;;;;;;2.40;1.00;;;;;;4965601;28;20295;-73
2023/01/21 10:57:35;;;;;;;;;;;2.50;1.00;;;;;;4952711;29;20397;-73
2023/01/21 11:00:03;;;;;;;;;;;2.50;1.00;;;;;;4953895;28;20316;-80
2023/01/21 11:02:32;;;;;;;;;;;2.50;1.00;;;;;;4961825;28;20329;-84
2023/01/21 11:08:20;;;;;;;;;;;2.60;1.00;;;;;;4954429;28;19921;-85
2023/01/21 11:11:04;;;;;;;;;;;2.60;1.00;;;;;;4959882;28;19910;-84
2023/01/21 11:16:56;;;;;;;;;;;2.40;1.00;;;;;;4967286;28;20010;-86
2023/01/21 11:19:26;;;;;;;;;;;2.60;1.00;;;;;;4949852;28;19964;-84
2023/01/21 11:22:20;;;;;;;;;;;2.70;1.00;;;;;;5031553;28;19927;-85
2023/01/21 11:27:49;;;;;;;;;;;2.50;1.00;;;;;;5026930;28;20043;-85
2023/01/21 11:30:34;;;;;;;;;;;2.60;1.00;;;;;;5036779;28;19979;-74
2023/01/21 11:33:13;;;;;;;;;;;2.60;1.00;;;;;;5033326;28;19996;-73
2023/01/21 11:35:39;;;;;;;;;;;2.50;1.00;;;;;;5013725;28;19936;-73
2023/01/21 11:38:05;;;;;;;;;;;2.40;1.00;;;;;;5031018;28;19909;-73
2023/01/21 11:40:30;;;;;;;;;;;2.30;1.00;;;;;;5036054;28;19920;-73
2023/01/21 11:42:56;;;;;;;;;;;2.40;1.00;;;;;;5033115;28;19909;-73
2023/01/21 11:45:30;;;;;;;;;;;2.40;1.00;;;;;;5030789;28;19925;-77
2023/01/21 11:47:57;;;;;;;;;;;2.40;1.00;;;;;;5031447;28;19970;-73
2023/01/21 11:50:22;;;;;;;;;;;2.60;1.00;;;;;;5035016;28;20004;-74
2023/01/21 11:53:10;;;;;;;;;;;2.50;1.00;;;;;;5032235;28;20386;-73
2023/01/21 11:55:46;;;;;;;;;;;2.40;1.00;;;;;;5033998;28;20404;-73
2023/01/21 11:58:21;;;;;;;;;;;2.50;1.00;;;;;;5031365;28;19913;-74
2023/01/21 12:01:04;;;;;;;;;;;2.70;1.00;;;;;;5035242;28;19916;-84
2023/01/21 12:03:51;;;;;;;;;;;2.60;1.00;;;;;;5036082;28;19955;-85
2023/01/21 12:06:22;;;;;;;;;;;2.60;1.00;;;;;;5033115;28;20407;-84
2023/01/21 12:08:52;;;;;;;;;;;2.60;1.00;;;;;;5035972;28;19982;-85
2023/01/21 12:11:44;;;;;;;;;;;2.70;1.00;;;;;;5035857;28;19918;-86
2023/01/21 12:17:46;;;;;;;;;;;3.00;1.00;;;;;;5028957;28;19989;-85
2023/01/21 12:20:17;;;;;;;;;;;3.10;1.00;;;;;;4955641;29;20294;-84
2023/01/21 12:23:14;;;;;;;;;;;3.00;1.00;;;;;;4955504;29;19922;-85
2023/01/21 12:25:54;;;;;;;;;;;3.00;1.00;;;;;;4936672;29;19911;-84
2023/01/21 12:28:50;;;;;;;;;;;2.90;1.00;;;;;;4936683;29;19915;-84
2023/01/21 12:37:37;;;;;;;;;;;3.00;1.00;;;;;;4935287;29;19998;-84
2023/01/21 12:40:13;;;;;;;;;;;2.90;1.00;;;;;;4951303;29;20039;-85
2023/01/21 12:45:50;;;;;;;;;;;3.20;1.00;;;;;;4936124;29;19918;-84
2023/01/21 12:48:25;;;;;;;;;;;3.30;1.00;;;;;;4953419;29;19923;-73
2023/01/21 12:50:57;;;;;;;;;;;3.30;1.00;;;;;;4941234;29;19942;-73
2023/01/21 12:53:31;;;;;;;;;;;3.20;1.00;;;;;;4946754;29;19911;-73
2023/01/21 12:55:56;;;;;;;;;;;3.10;1.00;;;;;;4980998;28;19920;-73
2023/01/21 12:58:24;;;;;;;;;;;3.10;1.00;;;;;;5033792;28;19913;-72
2023/01/21 13:00:51;;;;;;;;;;;2.90;1.00;;;;;;5034284;28;20016;-73
2023/01/21 13:03:36;;;;;;;;;;;3.00;1.00;;;;;;5034190;28;20058;-73
2023/01/21 13:06:04;;;;;;;;;;;3.20;1.00;;;;;;5033868;28;19920;-73
2023/01/21 13:08:36;;;;;;;;;;;3.40;1.00;;;;;;5014839;28;19925;-73
2023/01/21 13:11:21;;;;;;;;;;;3.40;1.00;;;;;;5032690;28;20023;-73
2023/01/21 13:13:53;;;;;;;;;;;3.60;1.00;;;;;;5032434;28;19909;-73
2023/01/21 13:16:38;;;;;;;;;;;3.60;1.00;;;;;;5027783;28;19920;-79
2023/01/21 13:19:18;;;;;;;;;;;3.60;1.00;;;;;;5034930;28;19913;-84
2023/01/21 13:21:55;;;;;;;;;;;3.60;1.00;;;;;;5017732;28;19936;-83
2023/01/21 13:24:44;;;;;;;;;;;3.60;1.00;;;;;;5034606;28;19909;-82
2023/01/21 13:27:38;;;;;;;;;;;3.60;1.00;;;;;;5016704;28;19910;-83
2023/01/21 13:33:44;;;;;;;;;;;3.90;1.00;;;;;;5034653;28;20024;-83
2023/01/21 13:36:20;;;;;;;;;;;3.80;1.00;;;;;;5013814;28;19909;-84
2023/01/21 13:39:08;;;;;;;;;;;3.80;1.00;;;;;;5014879;28;19910;-84
2023/01/21 13:41:56;;;;;;;;;;;3.70;1.00;;;;;;5019001;28;19967;-84
2023/01/21 13:44:56;;;;;;;;;;;3.30;1.00;;;;;;5034464;28;20011;-83
2023/01/21 13:47:56;;;;;;;;;;;3.10;1.00;;;;;;5034531;28;19921;-84
2023/01/21 13:50:45;;;;;;;;;;;3.30;1.00;;;;;;5017034;28;19920;-84
2023/01/21 13:53:24;;;;;;;;;;;3.40;1.00;;;;;;5034302;28;19916;-86
2023/01/21 13:56:26;;;;;;;;;;;3.60;1.00;;;;;;5034295;28;20341;-85
2023/01/21 14:01:58;;;;;;;;;;;3.30;1.00;;;;;;5034155;28;19963;-75
2023/01/21 14:04:26;;;;;;;;;;;3.30;1.00;;;;;;5033593;28;19920;-75
2023/01/21 14:07:14;;;;;;;;;;;3.20;1.00;;;;;;5033896;28;20272;-82
2023/01/21 14:09:40;;;;;;;;;;;3.10;1.00;;;;;;5016007;28;19920;-75
2023/01/21 14:12:05;;;;;;;;;;;3.00;1.00;;;;;;5033538;28;19913;-75
2023/01/21 14:14:31;;;;;;;;;;;2.90;1.00;;;;;;5033357;28;19909;-75
2023/01/21 14:17:04;;;;;;;;;;;2.90;1.00;;;;;;5015718;28;20002;-74
2023/01/21 14:19:45;;;;;;;;;;;2.80;1.00;;;;;;5033838;28;19916;-84
2023/01/21 14:25:22;;;;;;;;;;;2.60;1.00;;;;;;5021735;28;19917;-85
2023/01/21 14:28:14;;;;;;;;;;;2.60;1.00;;;;;;5033921;28;20311;-84
2023/01/21 14:31:02;;;;;;;;;;;2.60;1.00;;;;;;5033528;28;19909;-84
2023/01/21 14:33:43;;;;;;;;;;;2.60;1.00;;;;;;5024839;28;19938;-76
2023/01/21 14:36:13;;;;;;;;;;;2.50;1.00;;;;;;5019456;28;19955;-76
2023/01/21 14:38:50;;;;;;;;;;;2.50;1.00;;;;;;5036917;28;20003;-76
2023/01/21 14:41:46;;;;;;;;;;;2.50;1.00;;;;;;5019125;28;19916;-75
2023/01/21 14:44:31;;;;;;;;;;;2.40;1.00;;;;;;5037112;28;20395;-76
2023/01/21 14:47:28;;;;;;;;;;;2.40;1.00;;;;;;5019455;28;19975;-76
2023/01/21 14:50:20;;;;;;;;;;;2.40;1.00;;;;;;4947204;29;20325;-83
2023/01/21 14:52:46;;;;;;;;;;;2.40;1.00;;;;;;4954201;29;20001;-85
2023/01/21 14:55:27;;;;;;;;;;;2.30;1.00;;;;;;4957109;29;20013;-84
2023/01/21 14:57:59;;;;;;;;;;;2.30;1.00;;;;;;4957022;29;19942;-84
2023/01/21 15:00:44;;;;;;;;;;;2.20;1.00;;;;;;4957086;29;19911;-86
2023/01/21 15:03:16;;;;;;;;;;;2.20;1.00;;;;;;4956911;29;19914;-75
2023/01/21 15:05:43;;;;;;;;;;;2.20;1.00;;;;;;4956749;29;20363;-75
2023/01/21 15:08:26;;;;;;;;;;;2.10;1.00;;;;;;4955606;29;20337;-75
2023/01/21 15:10:57;;;;;;;;;;;2.10;1.00;;;;;;4956623;29;20305;-77
2023/01/21 15:13:26;;;;;;;;;;;2.10;1.00;;;;;;4956373;29;19949;-77
2023/01/21 15:16:03;;;;;;;;;;;2.10;1.00;;;;;;4956504;29;19917;-77
2023/01/21 15:19:04;;;;;;;;;;;2.20;1.00;;;;;;4956322;29;20346;-83
2023/01/21 15:24:34;;;;;;;;;;;2.20;1.00;;;;;;4956324;29;19922;-84
2023/01/21 15:27:19;;;;;;;;;;;2.30;1.00;;;;;;5020073;28;20356;-82
2023/01/21 15:30:20;;;;;;;;;;;2.30;1.00;;;;;;5036199;28;19921;-83
2023/01/21 15:35:49;;;;;;;;;;;2.30;1.00;;;;;;5035917;28;19919;-82
2023/01/21 15:41:25;;;;;;;;;;;2.20;1.00;;;;;;5035792;28;19916;-82
2023/01/21 15:44:20;;;;;;;;;;;2.10;1.00;;;;;;5035810;28;19913;-83
2023/01/21 15:46:50;;;;;;;;;;;2.10;1.00;;;;;;5035928;28;19916;-82
2023/01/21 15:49:36;;;;;;;;;;;2.00;1.00;;;;;;5036039;28;20308;-76
2023/01/21 15:52:14;;;;;;;;;;;2.00;1.00;;;;;;5035953;28;20279;-77
2023/01/21 15:55:02;;;;;;;;;;;1.90;1.00;;;;;;5035636;28;20004;-76
2023/01/21 15:57:44;;;;;;;;;;;1.90;1.00;;;;;;5035813;28;19917;-77
2023/01/21 16:00:38;;;;;;;;;;;1.90;1.00;;;;;;5022443;28;20365;-76
2023/01/21 16:03:14;;;;;;;;;;;2.00;1.00;;;;;;5035661;28;19917;-79
2023/01/21 16:05:45;;;;;;;;;;;1.90;1.00;;;;;;5027812;28;20003;-80
2023/01/21 16:08:25;;;;;;;;;;;2.00;1.00;;;;;;5035409;28;19917;-80
2023/01/21 16:10:57;;;;;;;;;;;2.00;1.00;;;;;;5035539;28;19909;-81
2023/01/21 16:19:32;;;;;;;;;;;1.90;1.00;;;;;;5035436;28;19951;-75
2023/01/21 16:22:20;;;;;;;;;;;1.90;1.00;;;;;;5017619;28;19917;-75
2023/01/21 16:24:53;;;;;;;;;;;1.90;1.00;;;;;;5017733;28;19909;-75
2023/01/21 16:27:29;;;;;;;;;;;1.90;1.00;;;;;;5035133;28;19909;-76
2023/01/21 16:29:55;;;;;;;;;;;1.90;1.00;;;;;;5017172;28;20406;-74
2023/01/21 16:32:21;;;;;;;;;;;2.00;1.00;;;;;;5019837;28;19914;-75
2023/01/21 16:34:50;;;;;;;;;;;1.90;1.00;;;;;;5015694;28;20372;-76
2023/01/21 16:37:44;;;;;;;;;;;1.80;1.00;;;;;;5031323;28;20011;-86
2023/01/21 16:40:44;;;;;;;;;;;1.90;1.00;;;;;;5017961;28;19916;-85
2023/01/21 16:43:32;;;;;;;;;;;1.90;1.00;;;;;;5026003;28;19944;-85
2023/01/21 16:46:03;;;;;;;;;;;1.90;1.00;;;;;;5005237;28;19909;-85
2023/01/21 16:49:03;;;;;;;;;;;1.90;1.00;;;;;;5017774;28;20299;-85
2023/01/21 16:51:39;;;;;;;;;;;1.90;1.00;;;;;;5017335;28;19920;-86
2023/01/21 16:57:14;;;;;;;;;;;1.90;1.00;;;;;;5025921;28;19976;-85
2023/01/21 17:00:14;;;;;;;;;;;1.90;1.00;;;;;;5027267;28;19952;-91
2023/01/21 17:02:50;;;;;;;;;;;1.80;1.00;;;;;;5008609;28;19913;-87
2023/01/21 17:05:20;;;;;;;;;;;1.90;1.00;;;;;;5035285;28;19909;-89
2023/01/21 17:07:50;;;;;;;;;;;1.80;1.00;;;;;;5035463;28;19913;-91
2023/01/21 17:19:32;;;;;;;;;;;1.80;1.00;;;;;;5034763;28;19916;-86
2023/01/21 17:25:21;;;;;;;;;;;1.80;1.00;;;;;;5023591;28;19916;-86
2023/01/21 17:31:06;;;;;;;;;;;1.80;1.00;;;;;;5034142;28;19916;-85
2023/01/21 17:33:44;;;;;;;;;;;1.80;1.00;;;;;;5016508;28;19943;-83
2023/01/21 17:36:28;;;;;;;;;;;1.80;1.00;;;;;;5034028;28;19909;-88
2023/01/21 17:45:03;;;;;;;;;;;1.80;1.00;;;;;;5034454;28;19975;-90
2023/01/21 17:53:54;;;;;;;;;;;1.80;1.00;;;;;;5033899;28;19977;-84
2023/01/21 17:59:38;;;;;;;;;;;1.80;1.00;;;;;;5024561;28;19933;-82
2023/01/21 18:02:21;;;;;;;;;;;1.80;1.00;;;;;;5013452;28;19917;-83
2023/01/21 18:04:50;;;;;;;;;;;1.90;1.00;;;;;;5016785;28;19915;-84